Antonio Roldan Betancourt Airport
SKLC : now visible

Airfield :











YOU CAN JOIN US ON...

 
LOGIN :

Register | Disclaimer

   EN    FR    IT 

 









Legend :    VFR   Marginal VFR   IFR   Intensive IFR   Very Intensive IFR
Visi :
Ceiling :
>= 8 km
>= 3000ft
5 to 8 km
1000 to 3000 ft
1500m to 5 km
500 to 1000 ft
800 to 1500m
200 to 500 ft
< 800m
< 200 ft
Symbols :   Thunderstorms  Fog  Heavy snow  Heavy precipitations  Wind > 20 kt






- Airport Elevation : 46 ft


SKLC - Antonio Roldan Betancourt

CURRENT METAR :
  • 242300Z 02005KT 9999 SCT015 BKN090 25/24 A2985 REDZ

EXPIRED METARs :
  • 242200Z 02007KT 320V040 9999 VCSH SCT017 BKN090 26/24 A2984 REDZ RMK VCSH/N
  • 242100Z 35010KT 340V030 9000 -DZ FEW017 BKN090 27/25 A2983

TAF N/A



MET'MAP, your aeronautical weather chart ! - Copyright ORBIFLY December 2007 - Disclaimer

ORBIFLY MET'MAP TEAM :

Programming & Development : Alexandra Zaïnal
Concept & original design : Baudouin d'Aumeries
Assistance for programming : Marc-Olivier Méhu
Technical & hardware support : Manuel Goepfert

Contact : metmap@orbifly.com




SOURCES & CREDITS :

   NOAA       Earth
Advisory